sensor_id;sensor_type;location;lat;lon;timestamp;temperature;humidity
48946;DHT22;34999;50.940;3.998;2022-11-18T00:00:03;8.90;99.90
48946;DHT22;34999;50.940;3.998;2022-11-18T00:02:33;8.90;99.90
48946;DHT22;34999;50.940;3.998;2022-11-18T00:05:02;8.90;99.90
48946;DHT22;34999;50.940;3.998;2022-11-18T00:07:30;9.00;99.90
48946;DHT22;34999;50.940;3.998;2022-11-18T00:09:59;9.00;99.90
48946;DHT22;34999;50.940;3.998;2022-11-18T00:12:27;9.10;99.90
48946;DHT22;34999;50.940;3.998;2022-11-18T00:15:13;9.00;99.90
48946;DHT22;34999;50.940;3.998;2022-11-18T00:17:42;9.00;99.90
48946;DHT22;34999;50.940;3.998;2022-11-18T00:20:10;9.00;99.90
48946;DHT22;34999;50.940;3.998;2022-11-18T00:22:39;9.00;99.90
48946;DHT22;34999;50.940;3.998;2022-11-18T00:25:08;8.90;99.90
48946;DHT22;34999;50.940;3.998;2022-11-18T00:27:36;8.90;99.90
48946;DHT22;34999;50.940;3.998;2022-11-18T00:30:06;8.90;99.90
48946;DHT22;34999;50.940;3.998;2022-11-18T00:32:34;8.90;99.90
48946;DHT22;34999;50.940;3.998;2022-11-18T00:35:04;8.90;99.90
48946;DHT22;34999;50.940;3.998;2022-11-18T00:37:33;8.90;99.90
48946;DHT22;34999;50.940;3.998;2022-11-18T00:40:02;8.90;99.90
48946;DHT22;34999;50.940;3.998;2022-11-18T00:42:30;8.90;99.90
48946;DHT22;34999;50.940;3.998;2022-11-18T00:45:16;8.80;99.90
48946;DHT22;34999;50.940;3.998;2022-11-18T00:47:44;8.80;99.90
48946;DHT22;34999;50.940;3.998;2022-11-18T00:50:14;8.80;99.90
48946;DHT22;34999;50.940;3.998;2022-11-18T00:52:43;8.70;99.90
48946;DHT22;34999;50.940;3.998;2022-11-18T00:55:11;8.70;99.90
48946;DHT22;34999;50.940;3.998;2022-11-18T00:57:39;8.70;99.90
48946;DHT22;34999;50.940;3.998;2022-11-18T01:00:09;8.60;99.90
48946;DHT22;34999;50.940;3.998;2022-11-18T01:02:37;8.60;99.90
48946;DHT22;34999;50.940;3.998;2022-11-18T01:05:06;8.50;99.90
48946;DHT22;34999;50.940;3.998;2022-11-18T01:07:36;8.50;99.90
48946;DHT22;34999;50.940;3.998;2022-11-18T01:10:08;8.50;99.90
48946;DHT22;34999;50.940;3.998;2022-11-18T01:12:37;8.40;99.90
48946;DHT22;34999;50.940;3.998;2022-11-18T01:15:22;8.40;99.90
48946;DHT22;34999;50.940;3.998;2022-11-18T01:17:51;8.40;99.90
48946;DHT22;34999;50.940;3.998;2022-11-18T01:20:19;8.40;99.90
48946;DHT22;34999;50.940;3.998;2022-11-18T01:22:49;8.30;99.90
48946;DHT22;34999;50.940;3.998;2022-11-18T01:25:18;8.30;99.90
48946;DHT22;34999;50.940;3.998;2022-11-18T01:27:46;8.30;99.90
48946;DHT22;34999;50.940;3.998;2022-11-18T01:30:15;8.40;99.90
48946;DHT22;34999;50.940;3.998;2022-11-18T01:32:44;8.40;99.90
48946;DHT22;34999;50.940;3.998;2022-11-18T01:35:12;8.40;99.90
48946;DHT22;34999;50.940;3.998;2022-11-18T01:37:40;8.50;99.90
48946;DHT22;34999;50.940;3.998;2022-11-18T01:40:10;8.50;99.90
48946;DHT22;34999;50.940;3.998;2022-11-18T01:42:39;8.50;99.90
48946;DHT22;34999;50.940;3.998;2022-11-18T01:45:23;8.60;99.90
48946;DHT22;34999;50.940;3.998;2022-11-18T01:47:59;8.60;99.90
48946;DHT22;34999;50.940;3.998;2022-11-18T01:50:30;8.70;99.90
48946;DHT22;34999;50.940;3.998;2022-11-18T01:53:03;8.70;99.90
48946;DHT22;34999;50.940;3.998;2022-11-18T01:55:35;8.70;99.90
48946;DHT22;34999;50.940;3.998;2022-11-18T01:58:08;8.60;99.90
48946;DHT22;34999;50.940;3.998;2022-11-18T02:00:38;8.60;99.90
48946;DHT22;34999;50.940;3.998;2022-11-18T02:03:11;8.50;99.90
48946;DHT22;34999;50.940;3.998;2022-11-18T02:05:41;8.40;99.90
48946;DHT22;34999;50.940;3.998;2022-11-18T02:08:11;8.40;99.90
48946;DHT22;34999;50.940;3.998;2022-11-18T02:10:41;8.40;99.90
48946;DHT22;34999;50.940;3.998;2022-11-18T02:13:10;8.30;99.90
48946;DHT22;34999;50.940;3.998;2022-11-18T02:15:50;8.30;99.90
48946;DHT22;34999;50.940;3.998;2022-11-18T02:18:30;8.30;99.90
48946;DHT22;34999;50.940;3.998;2022-11-18T02:21:09;8.20;99.90
48946;DHT22;34999;50.940;3.998;2022-11-18T02:27:17;8.20;99.90
48946;DHT22;34999;50.940;3.998;2022-11-18T02:29:55;8.20;99.90
48946;DHT22;34999;50.940;3.998;2022-11-18T02:32:30;8.10;99.90
48946;DHT22;34999;50.940;3.998;2022-11-18T02:35:04;8.10;99.90
48946;DHT22;34999;50.940;3.998;2022-11-18T02:37:36;8.10;99.90
48946;DHT22;34999;50.940;3.998;2022-11-18T02:40:11;8.10;99.90
48946;DHT22;34999;50.940;3.998;2022-11-18T02:42:43;8.10;99.90
48946;DHT22;34999;50.940;3.998;2022-11-18T02:45:16;8.00;99.90
48946;DHT22;34999;50.940;3.998;2022-11-18T02:47:47;8.00;99.90
48946;DHT22;34999;50.940;3.998;2022-11-18T02:50:20;8.00;99.90
48946;DHT22;34999;50.940;3.998;2022-11-18T02:52:53;8.00;99.90
48946;DHT22;34999;50.940;3.998;2022-11-18T02:55:26;7.90;99.90
48946;DHT22;34999;50.940;3.998;2022-11-18T02:57:56;7.90;99.90
48946;DHT22;34999;50.940;3.998;2022-11-18T03:00:26;7.90;99.90
48946;DHT22;34999;50.940;3.998;2022-11-18T03:02:54;7.80;99.90
48946;DHT22;34999;50.940;3.998;2022-11-18T03:05:29;7.80;99.90
48946;DHT22;34999;50.940;3.998;2022-11-18T03:08:05;7.80;99.90
48946;DHT22;34999;50.940;3.998;2022-11-18T03:10:39;7.80;99.90
48946;DHT22;34999;50.940;3.998;2022-11-18T03:13:14;7.80;99.90
48946;DHT22;34999;50.940;3.998;2022-11-18T03:15:53;7.70;99.90
48946;DHT22;34999;50.940;3.998;2022-11-18T03:18:29;7.70;99.90
48946;DHT22;34999;50.940;3.998;2022-11-18T03:21:05;7.70;99.90
48946;DHT22;34999;50.940;3.998;2022-11-18T03:23:38;7.70;99.90
48946;DHT22;34999;50.940;3.998;2022-11-18T03:26:11;7.70;99.90
48946;DHT22;34999;50.940;3.998;2022-11-18T03:28:45;7.70;99.90
48946;DHT22;34999;50.940;3.998;2022-11-18T03:31:22;7.70;99.90
48946;DHT22;34999;50.940;3.998;2022-11-18T03:33:55;7.70;99.90
48946;DHT22;34999;50.940;3.998;2022-11-18T03:36:31;7.70;99.90
48946;DHT22;34999;50.940;3.998;2022-11-18T03:39:02;7.60;99.90
48946;DHT22;34999;50.940;3.998;2022-11-18T03:41:37;7.60;99.90
48946;DHT22;34999;50.940;3.998;2022-11-18T03:44:10;7.60;99.90
48946;DHT22;34999;50.940;3.998;2022-11-18T03:46:44;7.70;99.90
48946;DHT22;34999;50.940;3.998;2022-11-18T03:49:17;7.70;99.90
48946;DHT22;34999;50.940;3.998;2022-11-18T03:51:50;7.70;99.90
48946;DHT22;34999;50.940;3.998;2022-11-18T03:54:23;7.70;99.90
48946;DHT22;34999;50.940;3.998;2022-11-18T03:56:55;7.70;99.90
48946;DHT22;34999;50.940;3.998;2022-11-18T03:59:30;7.70;99.90
48946;DHT22;34999;50.940;3.998;2022-11-18T04:02:05;7.60;99.90
48946;DHT22;34999;50.940;3.998;2022-11-18T04:04:36;7.60;99.90
48946;DHT22;34999;50.940;3.998;2022-11-18T04:07:10;7.60;99.90
48946;DHT22;34999;50.940;3.998;2022-11-18T04:09:44;7.50;99.90
48946;DHT22;34999;50.940;3.998;2022-11-18T04:12:15;7.60;99.90
48946;DHT22;34999;50.940;3.998;2022-11-18T04:14:44;7.50;99.90
48946;DHT22;34999;50.940;3.998;2022-11-18T04:17:20;7.50;99.90
48946;DHT22;34999;50.940;3.998;2022-11-18T04:19:48;7.50;99.90
48946;DHT22;34999;50.940;3.998;2022-11-18T04:22:17;7.50;99.90
48946;DHT22;34999;50.940;3.998;2022-11-18T04:24:46;7.50;99.90
48946;DHT22;34999;50.940;3.998;2022-11-18T04:27:15;7.50;99.90
48946;DHT22;34999;50.940;3.998;2022-11-18T04:29:44;7.50;99.90
48946;DHT22;34999;50.940;3.998;2022-11-18T04:32:12;7.50;99.90
48946;DHT22;34999;50.940;3.998;2022-11-18T04:34:42;7.40;99.90
48946;DHT22;34999;50.940;3.998;2022-11-18T04:37:10;7.40;99.90
48946;DHT22;34999;50.940;3.998;2022-11-18T04:39:40;7.40;99.90
48946;DHT22;34999;50.940;3.998;2022-11-18T04:42:08;7.30;99.90
48946;DHT22;34999;50.940;3.998;2022-11-18T04:44:37;7.30;99.90
48946;DHT22;34999;50.940;3.998;2022-11-18T04:47:05;7.30;99.90
48946;DHT22;34999;50.940;3.998;2022-11-18T04:49:34;7.30;99.90
48946;DHT22;34999;50.940;3.998;2022-11-18T04:52:05;7.40;99.90
48946;DHT22;34999;50.940;3.998;2022-11-18T04:54:33;7.40;99.90
48946;DHT22;34999;50.940;3.998;2022-11-18T04:57:01;7.30;99.90
48946;DHT22;34999;50.940;3.998;2022-11-18T04:59:30;7.30;99.90
48946;DHT22;34999;50.940;3.998;2022-11-18T05:01:59;7.20;99.90
48946;DHT22;34999;50.940;3.998;2022-11-18T05:04:32;7.20;99.90
48946;DHT22;34999;50.940;3.998;2022-11-18T05:07:03;7.20;99.90
48946;DHT22;34999;50.940;3.998;2022-11-18T05:09:34;7.20;99.90
48946;DHT22;34999;50.940;3.998;2022-11-18T05:12:02;7.20;99.90
48946;DHT22;34999;50.940;3.998;2022-11-18T05:14:48;7.20;99.90
48946;DHT22;34999;50.940;3.998;2022-11-18T05:17:17;7.20;99.90
48946;DHT22;34999;50.940;3.998;2022-11-18T05:19:45;7.30;99.90
48946;DHT22;34999;50.940;3.998;2022-11-18T05:22:16;7.30;99.90
48946;DHT22;34999;50.940;3.998;2022-11-18T05:24:44;7.30;99.90
48946;DHT22;34999;50.940;3.998;2022-11-18T05:27:13;7.30;99.90
48946;DHT22;34999;50.940;3.998;2022-11-18T05:29:42;7.30;99.90
48946;DHT22;34999;50.940;3.998;2022-11-18T05:32:10;7.40;99.90
48946;DHT22;34999;50.940;3.998;2022-11-18T05:34:39;7.30;99.90
48946;DHT22;34999;50.940;3.998;2022-11-18T05:37:08;7.40;99.90
48946;DHT22;34999;50.940;3.998;2022-11-18T05:39:38;7.30;99.90
48946;DHT22;34999;50.940;3.998;2022-11-18T05:42:06;7.30;99.90
48946;DHT22;34999;50.940;3.998;2022-11-18T05:44:52;7.30;99.90
48946;DHT22;34999;50.940;3.998;2022-11-18T05:47:24;7.30;99.90
48946;DHT22;34999;50.940;3.998;2022-11-18T05:49:52;7.30;99.90
48946;DHT22;34999;50.940;3.998;2022-11-18T05:52:21;7.30;99.90
48946;DHT22;34999;50.940;3.998;2022-11-18T05:54:50;7.20;99.90
48946;DHT22;34999;50.940;3.998;2022-11-18T05:57:19;7.30;99.90
48946;DHT22;34999;50.940;3.998;2022-11-18T05:59:47;7.30;99.90
48946;DHT22;34999;50.940;3.998;2022-11-18T06:02:22;7.30;99.90
48946;DHT22;34999;50.940;3.998;2022-11-18T06:04:53;7.20;99.90
48946;DHT22;34999;50.940;3.998;2022-11-18T06:07:26;7.20;99.90
48946;DHT22;34999;50.940;3.998;2022-11-18T06:09:58;7.30;99.90
48946;DHT22;34999;50.940;3.998;2022-11-18T06:12:34;7.30;99.90
48946;DHT22;34999;50.940;3.998;2022-11-18T06:15:05;7.30;99.90
48946;DHT22;34999;50.940;3.998;2022-11-18T06:17:40;7.30;99.90
48946;DHT22;34999;50.940;3.998;2022-11-18T06:20:11;7.20;99.90
48946;DHT22;34999;50.940;3.998;2022-11-18T06:22:39;7.30;99.90
48946;DHT22;34999;50.940;3.998;2022-11-18T06:25:14;7.40;99.90
48946;DHT22;34999;50.940;3.998;2022-11-18T06:27:43;7.40;99.90
48946;DHT22;34999;50.940;3.998;2022-11-18T06:30:13;7.50;99.90
48946;DHT22;34999;50.940;3.998;2022-11-18T06:32:41;7.50;99.90
48946;DHT22;34999;50.940;3.998;2022-11-18T06:35:10;7.50;99.90
48946;DHT22;34999;50.940;3.998;2022-11-18T06:37:40;7.60;99.90
48946;DHT22;34999;50.940;3.998;2022-11-18T06:40:10;7.60;99.90
48946;DHT22;34999;50.940;3.998;2022-11-18T06:42:39;7.60;99.90
48946;DHT22;34999;50.940;3.998;2022-11-18T06:45:25;7.60;99.90
48946;DHT22;34999;50.940;3.998;2022-11-18T06:47:55;7.60;99.90
48946;DHT22;34999;50.940;3.998;2022-11-18T06:50:23;7.60;99.90
48946;DHT22;34999;50.940;3.998;2022-11-18T06:52:51;7.70;99.90
48946;DHT22;34999;50.940;3.998;2022-11-18T06:55:20;7.70;99.90
48946;DHT22;34999;50.940;3.998;2022-11-18T06:57:49;7.80;99.90
48946;DHT22;34999;50.940;3.998;2022-11-18T07:00:18;7.80;99.90
48946;DHT22;34999;50.940;3.998;2022-11-18T07:02:46;7.80;99.90
48946;DHT22;34999;50.940;3.998;2022-11-18T07:05:15;7.90;99.90
48946;DHT22;34999;50.940;3.998;2022-11-18T07:07:43;7.90;99.90
48946;DHT22;34999;50.940;3.998;2022-11-18T07:10:12;8.00;99.90
48946;DHT22;34999;50.940;3.998;2022-11-18T07:12:40;8.00;99.90
48946;DHT22;34999;50.940;3.998;2022-11-18T07:15:10;8.00;99.90
48946;DHT22;34999;50.940;3.998;2022-11-18T07:17:39;8.10;99.90
48946;DHT22;34999;50.940;3.998;2022-11-18T07:20:08;8.10;99.90
48946;DHT22;34999;50.940;3.998;2022-11-18T07:22:37;8.10;99.90
48946;DHT22;34999;50.940;3.998;2022-11-18T07:25:05;8.20;99.90
48946;DHT22;34999;50.940;3.998;2022-11-18T07:27:34;8.20;99.90
48946;DHT22;34999;50.940;3.998;2022-11-18T07:30:03;8.20;99.90
48946;DHT22;34999;50.940;3.998;2022-11-18T07:32:33;8.30;99.90
48946;DHT22;34999;50.940;3.998;2022-11-18T07:35:01;8.30;99.90
48946;DHT22;34999;50.940;3.998;2022-11-18T07:37:30;8.30;99.90
48946;DHT22;34999;50.940;3.998;2022-11-18T07:39:58;8.30;99.90
48946;DHT22;34999;50.940;3.998;2022-11-18T07:42:26;8.30;99.90
48946;DHT22;34999;50.940;3.998;2022-11-18T07:44:54;8.30;99.90
48946;DHT22;34999;50.940;3.998;2022-11-18T07:47:23;8.30;99.90
48946;DHT22;34999;50.940;3.998;2022-11-18T07:49:52;8.30;99.90
48946;DHT22;34999;50.940;3.998;2022-11-18T07:52:21;8.30;99.90
48946;DHT22;34999;50.940;3.998;2022-11-18T07:54:49;8.30;99.90
48946;DHT22;34999;50.940;3.998;2022-11-18T07:57:19;8.40;99.90
48946;DHT22;34999;50.940;3.998;2022-11-18T07:59:48;8.30;99.90
48946;DHT22;34999;50.940;3.998;2022-11-18T08:02:16;8.30;99.90
48946;DHT22;34999;50.940;3.998;2022-11-18T08:04:45;8.30;99.90
48946;DHT22;34999;50.940;3.998;2022-11-18T08:07:14;8.30;99.90
48946;DHT22;34999;50.940;3.998;2022-11-18T08:09:43;8.40;99.90
48946;DHT22;34999;50.940;3.998;2022-11-18T08:12:11;8.40;99.90
48946;DHT22;34999;50.940;3.998;2022-11-18T08:14:40;8.40;99.90
48946;DHT22;34999;50.940;3.998;2022-11-18T08:17:08;8.40;99.90
48946;DHT22;34999;50.940;3.998;2022-11-18T08:19:36;8.40;99.90
48946;DHT22;34999;50.940;3.998;2022-11-18T08:22:05;8.50;99.90
48946;DHT22;34999;50.940;3.998;2022-11-18T08:24:35;8.50;99.90
48946;DHT22;34999;50.940;3.998;2022-11-18T08:27:03;8.50;99.90
48946;DHT22;34999;50.940;3.998;2022-11-18T08:29:32;8.50;99.90
48946;DHT22;34999;50.940;3.998;2022-11-18T08:32:00;8.50;99.90
48946;DHT22;34999;50.940;3.998;2022-11-18T08:34:28;8.60;99.90
48946;DHT22;34999;50.940;3.998;2022-11-18T08:36:57;8.60;99.90
48946;DHT22;34999;50.940;3.998;2022-11-18T08:39:25;8.60;99.90
48946;DHT22;34999;50.940;3.998;2022-11-18T08:41:57;8.60;99.90
48946;DHT22;34999;50.940;3.998;2022-11-18T08:44:25;8.70;99.90
48946;DHT22;34999;50.940;3.998;2022-11-18T08:46:54;8.80;99.90
48946;DHT22;34999;50.940;3.998;2022-11-18T08:49:22;8.80;99.90
48946;DHT22;34999;50.940;3.998;2022-11-18T08:51:58;8.80;99.90
48946;DHT22;34999;50.940;3.998;2022-11-18T08:54:26;8.80;99.90
48946;DHT22;34999;50.940;3.998;2022-11-18T08:56:56;8.80;99.90
48946;DHT22;34999;50.940;3.998;2022-11-18T08:59:24;8.80;99.90
48946;DHT22;34999;50.940;3.998;2022-11-18T09:01:53;8.90;99.90
48946;DHT22;34999;50.940;3.998;2022-11-18T09:04:21;8.90;99.90
48946;DHT22;34999;50.940;3.998;2022-11-18T09:06:49;8.90;99.90
48946;DHT22;34999;50.940;3.998;2022-11-18T09:09:18;8.90;99.90
48946;DHT22;34999;50.940;3.998;2022-11-18T09:11:47;8.90;99.90
48946;DHT22;34999;50.940;3.998;2022-11-18T09:14:17;8.80;99.90
48946;DHT22;34999;50.940;3.998;2022-11-18T09:17:05;8.90;99.90
48946;DHT22;34999;50.940;3.998;2022-11-18T09:19:34;8.90;99.90
48946;DHT22;34999;50.940;3.998;2022-11-18T09:22:18;9.00;99.90
48946;DHT22;34999;50.940;3.998;2022-11-18T09:24:46;9.10;99.90
48946;DHT22;34999;50.940;3.998;2022-11-18T09:27:14;9.20;99.90
48946;DHT22;34999;50.940;3.998;2022-11-18T09:29:45;9.30;99.90
48946;DHT22;34999;50.940;3.998;2022-11-18T09:32:13;9.30;99.90
48946;DHT22;34999;50.940;3.998;2022-11-18T09:34:42;9.40;99.90
48946;DHT22;34999;50.940;3.998;2022-11-18T09:37:10;9.40;99.90
48946;DHT22;34999;50.940;3.998;2022-11-18T09:39:39;9.40;99.90
48946;DHT22;34999;50.940;3.998;2022-11-18T09:42:29;9.60;99.90
48946;DHT22;34999;50.940;3.998;2022-11-18T09:45:17;9.60;99.90
48946;DHT22;34999;50.940;3.998;2022-11-18T09:47:55;9.60;99.90
48946;DHT22;34999;50.940;3.998;2022-11-18T09:50:25;9.70;99.90
48946;DHT22;34999;50.940;3.998;2022-11-18T09:53:18;9.70;99.90
48946;DHT22;34999;50.940;3.998;2022-11-18T09:55:48;9.80;99.90
48946;DHT22;34999;50.940;3.998;2022-11-18T09:58:21;9.80;99.90
48946;DHT22;34999;50.940;3.998;2022-11-18T10:00:53;9.90;99.90
48946;DHT22;34999;50.940;3.998;2022-11-18T10:03:26;9.90;99.90
48946;DHT22;34999;50.940;3.998;2022-11-18T10:05:58;10.00;99.90
48946;DHT22;34999;50.940;3.998;2022-11-18T10:08:31;10.10;99.90
48946;DHT22;34999;50.940;3.998;2022-11-18T10:11:03;10.10;99.90
48946;DHT22;34999;50.940;3.998;2022-11-18T10:13:44;10.20;99.90
48946;DHT22;34999;50.940;3.998;2022-11-18T10:16:23;10.20;99.90
48946;DHT22;34999;50.940;3.998;2022-11-18T10:18:58;10.20;99.90
48946;DHT22;34999;50.940;3.998;2022-11-18T10:21:40;10.10;99.90
48946;DHT22;34999;50.940;3.998;2022-11-18T10:24:15;10.10;99.90
48946;DHT22;34999;50.940;3.998;2022-11-18T10:26:45;10.10;99.90
48946;DHT22;34999;50.940;3.998;2022-11-18T10:29:14;10.00;99.90
48946;DHT22;34999;50.940;3.998;2022-11-18T10:31:55;10.00;99.90
48946;DHT22;34999;50.940;3.998;2022-11-18T10:34:30;9.90;99.90
48946;DHT22;34999;50.940;3.998;2022-11-18T10:37:02;9.90;99.90
48946;DHT22;34999;50.940;3.998;2022-11-18T10:39:31;9.90;99.90
48946;DHT22;34999;50.940;3.998;2022-11-18T10:42:01;9.90;99.90
48946;DHT22;34999;50.940;3.998;2022-11-18T10:44:33;9.90;99.90
48946;DHT22;34999;50.940;3.998;2022-11-18T10:47:21;9.90;99.90
48946;DHT22;34999;50.940;3.998;2022-11-18T10:49:50;9.90;99.90
48946;DHT22;34999;50.940;3.998;2022-11-18T10:52:19;9.90;99.90
48946;DHT22;34999;50.940;3.998;2022-11-18T10:55:18;10.00;99.90
48946;DHT22;34999;50.940;3.998;2022-11-18T10:57:49;10.00;99.90
48946;DHT22;34999;50.940;3.998;2022-11-18T11:00:34;10.00;99.90
48946;DHT22;34999;50.940;3.998;2022-11-18T11:03:23;10.10;99.90
48946;DHT22;34999;50.940;3.998;2022-11-18T11:09:08;10.20;99.90
48946;DHT22;34999;50.940;3.998;2022-11-18T11:11:38;10.20;99.90
48946;DHT22;34999;50.940;3.998;2022-11-18T11:14:16;10.20;99.90
48946;DHT22;34999;50.940;3.998;2022-11-18T11:16:51;10.20;99.90
48946;DHT22;34999;50.940;3.998;2022-11-18T11:19:25;10.20;99.90
48946;DHT22;34999;50.940;3.998;2022-11-18T11:21:56;10.20;99.90
48946;DHT22;34999;50.940;3.998;2022-11-18T11:24:26;10.20;99.90
48946;DHT22;34999;50.940;3.998;2022-11-18T11:27:05;10.20;99.90
48946;DHT22;34999;50.940;3.998;2022-11-18T11:30:10;10.20;99.90
48946;DHT22;34999;50.940;3.998;2022-11-18T11:33:13;10.20;99.90
48946;DHT22;34999;50.940;3.998;2022-11-18T11:36:04;10.20;99.90
48946;DHT22;34999;50.940;3.998;2022-11-18T11:38:56;10.10;99.90
48946;DHT22;34999;50.940;3.998;2022-11-18T11:41:36;10.10;99.90
48946;DHT22;34999;50.940;3.998;2022-11-18T11:44:35;10.10;99.90
48946;DHT22;34999;50.940;3.998;2022-11-18T11:47:17;10.10;99.90
48946;DHT22;34999;50.940;3.998;2022-11-18T11:50:12;10.10;99.90
48946;DHT22;34999;50.940;3.998;2022-11-18T11:52:47;10.00;99.90
48946;DHT22;34999;50.940;3.998;2022-11-18T11:55:23;10.10;99.90
48946;DHT22;34999;50.940;3.998;2022-11-18T11:58:06;10.10;99.90
48946;DHT22;34999;50.940;3.998;2022-11-18T12:00:40;10.20;99.90
48946;DHT22;34999;50.940;3.998;2022-11-18T12:03:21;10.20;99.90
48946;DHT22;34999;50.940;3.998;2022-11-18T12:05:51;10.20;99.90
48946;DHT22;34999;50.940;3.998;2022-11-18T12:08:22;10.20;99.90
48946;DHT22;34999;50.940;3.998;2022-11-18T12:10:55;10.20;99.90
48946;DHT22;34999;50.940;3.998;2022-11-18T12:13:30;10.20;99.90
48946;DHT22;34999;50.940;3.998;2022-11-18T12:16:12;10.20;99.90
48946;DHT22;34999;50.940;3.998;2022-11-18T12:18:45;10.30;99.90
48946;DHT22;34999;50.940;3.998;2022-11-18T12:24:34;10.30;99.90
48946;DHT22;34999;50.940;3.998;2022-11-18T12:27:10;10.30;99.90
48946;DHT22;34999;50.940;3.998;2022-11-18T12:29:53;10.40;99.90
48946;DHT22;34999;50.940;3.998;2022-11-18T12:32:30;10.30;99.90
48946;DHT22;34999;50.940;3.998;2022-11-18T12:35:03;10.40;99.90
48946;DHT22;34999;50.940;3.998;2022-11-18T12:37:57;10.40;99.90
48946;DHT22;34999;50.940;3.998;2022-11-18T12:40:38;10.50;99.90
48946;DHT22;34999;50.940;3.998;2022-11-18T12:46:46;10.60;99.90
48946;DHT22;34999;50.940;3.998;2022-11-18T12:52:49;10.70;99.90
48946;DHT22;34999;50.940;3.998;2022-11-18T12:55:24;10.90;99.90
48946;DHT22;34999;50.940;3.998;2022-11-18T12:57:55;10.90;99.90
48946;DHT22;34999;50.940;3.998;2022-11-18T13:00:31;10.90;99.90
48946;DHT22;34999;50.940;3.998;2022-11-18T13:03:24;11.00;99.90
48946;DHT22;34999;50.940;3.998;2022-11-18T13:06:04;11.10;99.90
48946;DHT22;34999;50.940;3.998;2022-11-18T13:08:34;11.20;99.90
48946;DHT22;34999;50.940;3.998;2022-11-18T13:11:08;11.40;99.90
48946;DHT22;34999;50.940;3.998;2022-11-18T13:13:56;11.40;99.90
48946;DHT22;34999;50.940;3.998;2022-11-18T13:16:43;11.50;99.90
48946;DHT22;34999;50.940;3.998;2022-11-18T13:19:29;11.60;99.90
48946;DHT22;34999;50.940;3.998;2022-11-18T13:21:59;11.60;99.90
48946;DHT22;34999;50.940;3.998;2022-11-18T13:24:47;11.60;99.90
48946;DHT22;34999;50.940;3.998;2022-11-18T13:27:24;11.60;99.90
48946;DHT22;34999;50.940;3.998;2022-11-18T13:30:01;11.70;99.90
48946;DHT22;34999;50.940;3.998;2022-11-18T13:32:31;11.70;99.90
48946;DHT22;34999;50.940;3.998;2022-11-18T13:35:09;11.70;99.90
48946;DHT22;34999;50.940;3.998;2022-11-18T13:37:48;11.70;99.90
48946;DHT22;34999;50.940;3.998;2022-11-18T13:40:24;11.80;99.90
48946;DHT22;34999;50.940;3.998;2022-11-18T13:42:53;11.80;99.90
48946;DHT22;34999;50.940;3.998;2022-11-18T13:45:26;11.90;99.90
48946;DHT22;34999;50.940;3.998;2022-11-18T13:47:58;11.90;99.90
48946;DHT22;34999;50.940;3.998;2022-11-18T13:50:31;11.90;99.90
48946;DHT22;34999;50.940;3.998;2022-11-18T13:53:07;11.90;99.90
48946;DHT22;34999;50.940;3.998;2022-11-18T13:55:38;11.90;99.90
48946;DHT22;34999;50.940;3.998;2022-11-18T13:58:30;11.90;99.90
48946;DHT22;34999;50.940;3.998;2022-11-18T14:01:22;11.80;99.90
48946;DHT22;34999;50.940;3.998;2022-11-18T14:03:53;11.80;99.90
48946;DHT22;34999;50.940;3.998;2022-11-18T14:06:26;11.80;99.90
48946;DHT22;34999;50.940;3.998;2022-11-18T14:09:05;11.80;99.90
48946;DHT22;34999;50.940;3.998;2022-11-18T14:11:36;11.80;99.90
48946;DHT22;34999;50.940;3.998;2022-11-18T14:14:05;11.80;99.90
48946;DHT22;34999;50.940;3.998;2022-11-18T14:16:36;11.70;99.90
48946;DHT22;34999;50.940;3.998;2022-11-18T14:19:06;11.80;99.90
48946;DHT22;34999;50.940;3.998;2022-11-18T14:21:37;11.80;99.90
48946;DHT22;34999;50.940;3.998;2022-11-18T14:24:13;11.70;99.90
48946;DHT22;34999;50.940;3.998;2022-11-18T14:26:42;11.70;99.90
48946;DHT22;34999;50.940;3.998;2022-11-18T14:29:16;11.80;99.90
48946;DHT22;34999;50.940;3.998;2022-11-18T14:32:12;11.80;99.90
48946;DHT22;34999;50.940;3.998;2022-11-18T14:34:41;11.80;99.90
48946;DHT22;34999;50.940;3.998;2022-11-18T14:37:11;11.80;99.90
48946;DHT22;34999;50.940;3.998;2022-11-18T14:39:40;11.80;99.90
48946;DHT22;34999;50.940;3.998;2022-11-18T14:42:12;11.80;99.90
48946;DHT22;34999;50.940;3.998;2022-11-18T14:44:40;11.80;99.90
48946;DHT22;34999;50.940;3.998;2022-11-18T14:47:16;11.80;99.90
48946;DHT22;34999;50.940;3.998;2022-11-18T14:49:47;11.90;99.90
48946;DHT22;34999;50.940;3.998;2022-11-18T14:52:16;11.90;99.90
48946;DHT22;34999;50.940;3.998;2022-11-18T14:54:44;11.90;99.90
48946;DHT22;34999;50.940;3.998;2022-11-18T14:57:15;11.80;99.90
48946;DHT22;34999;50.940;3.998;2022-11-18T14:59:45;11.80;99.90
48946;DHT22;34999;50.940;3.998;2022-11-18T15:02:16;11.80;99.90
48946;DHT22;34999;50.940;3.998;2022-11-18T15:04:44;11.80;99.90
48946;DHT22;34999;50.940;3.998;2022-11-18T15:07:15;11.80;99.90
48946;DHT22;34999;50.940;3.998;2022-11-18T15:09:49;11.80;99.90
48946;DHT22;34999;50.940;3.998;2022-11-18T15:12:18;11.80;99.90
48946;DHT22;34999;50.940;3.998;2022-11-18T15:14:46;11.80;99.90
48946;DHT22;34999;50.940;3.998;2022-11-18T15:17:16;11.80;99.90
48946;DHT22;34999;50.940;3.998;2022-11-18T15:19:46;11.80;99.90
48946;DHT22;34999;50.940;3.998;2022-11-18T15:22:14;11.70;99.90
48946;DHT22;34999;50.940;3.998;2022-11-18T15:24:43;11.70;99.90
48946;DHT22;34999;50.940;3.998;2022-11-18T15:27:12;11.70;99.90
48946;DHT22;34999;50.940;3.998;2022-11-18T15:29:40;11.70;99.90
48946;DHT22;34999;50.940;3.998;2022-11-18T15:32:08;11.70;99.90
48946;DHT22;34999;50.940;3.998;2022-11-18T15:34:41;11.70;99.90
48946;DHT22;34999;50.940;3.998;2022-11-18T15:37:11;11.70;99.90
48946;DHT22;34999;50.940;3.998;2022-11-18T15:39:40;11.60;99.90
48946;DHT22;34999;50.940;3.998;2022-11-18T15:42:08;11.60;99.90
48946;DHT22;34999;50.940;3.998;2022-11-18T15:44:36;11.60;99.90
48946;DHT22;34999;50.940;3.998;2022-11-18T15:47:05;11.60;99.90
48946;DHT22;34999;50.940;3.998;2022-11-18T15:49:33;11.50;99.90
48946;DHT22;34999;50.940;3.998;2022-11-18T15:52:04;11.50;99.90
48946;DHT22;34999;50.940;3.998;2022-11-18T15:54:35;11.50;99.90
48946;DHT22;34999;50.940;3.998;2022-11-18T15:57:03;11.50;99.90
48946;DHT22;34999;50.940;3.998;2022-11-18T15:59:31;11.40;99.90
48946;DHT22;34999;50.940;3.998;2022-11-18T16:02:00;11.40;99.90
48946;DHT22;34999;50.940;3.998;2022-11-18T16:04:28;11.30;99.90
48946;DHT22;34999;50.940;3.998;2022-11-18T16:06:56;11.20;99.90
48946;DHT22;34999;50.940;3.998;2022-11-18T16:09:29;11.20;99.90
48946;DHT22;34999;50.940;3.998;2022-11-18T16:12:17;11.10;99.90
48946;DHT22;34999;50.940;3.998;2022-11-18T16:15:03;11.10;99.90
48946;DHT22;34999;50.940;3.998;2022-11-18T16:17:49;11.00;99.90
48946;DHT22;34999;50.940;3.998;2022-11-18T16:20:17;11.00;99.90
48946;DHT22;34999;50.940;3.998;2022-11-18T16:22:46;10.90;99.90
48946;DHT22;34999;50.940;3.998;2022-11-18T16:25:16;10.90;99.90
48946;DHT22;34999;50.940;3.998;2022-11-18T16:27:46;10.80;99.90
48946;DHT22;34999;50.940;3.998;2022-11-18T16:30:15;10.80;99.90